Time;durP1;ratioP1;P1;durP2;ratioP2;P2;SDS_P1;SDS_P2;PMS_P1;PMS_P2;Temp;Humidity;BMP_temperature;BMP_pressure;BME280_temperature;BME280_humidity;BME280_pressure;Samples;Min_cycle;Max_cycle;Signal;HPM_P1;HPM_P2
2024/02/12 00:00:35;;;;;;;1.80;1.13;;;9.50;99.90;;;;;;4963429;28;20451;-49
2024/02/12 00:03:04;;;;;;;1.67;1.20;;;9.50;99.90;;;;;;4963685;28;20475;-47
2024/02/12 00:05:36;;;;;;;1.50;1.00;;;9.50;99.90;;;;;;4966906;28;20491;-47
2024/02/12 00:08:07;;;;;;;1.23;0.70;;;9.50;99.90;;;;;;4965735;28;20534;-48
2024/02/12 00:10:38;;;;;;;1.50;1.07;;;9.50;99.90;;;;;;4967949;28;20721;-47
2024/02/12 00:13:07;;;;;;;1.60;1.00;;;9.50;99.90;;;;;;4956353;28;20590;-46
2024/02/12 00:15:35;;;;;;;1.47;1.00;;;9.50;99.90;;;;;;4966661;28;20438;-48
2024/02/12 00:18:05;;;;;;;2.43;1.20;;;9.50;99.90;;;;;;4963955;28;20494;-50
2024/02/12 00:20:33;;;;;;;1.83;0.90;;;9.50;99.90;;;;;;4968521;28;20974;-48
2024/02/12 00:23:03;;;;;;;1.67;1.10;;;9.50;99.90;;;;;;4967226;28;20472;-49
2024/02/12 00:25:34;;;;;;;2.53;1.20;;;9.50;99.90;;;;;;4965326;28;21033;-48
2024/02/12 00:28:02;;;;;;;1.53;0.97;;;9.50;99.90;;;;;;4951086;28;20480;-46
2024/02/12 00:30:32;;;;;;;1.50;1.00;;;9.50;99.90;;;;;;4968028;28;20427;-46
2024/02/12 00:33:03;;;;;;;1.37;1.13;;;9.50;99.90;;;;;;4960219;28;20479;-47
2024/02/12 00:35:32;;;;;;;2.00;1.20;;;9.50;99.90;;;;;;4966735;28;20745;-50
2024/02/12 00:38:01;;;;;;;1.60;1.20;;;9.50;99.90;;;;;;4967445;28;20465;-47
2024/02/12 00:40:30;;;;;;;1.53;1.03;;;9.50;99.90;;;;;;4968227;28;20431;-47
2024/02/12 00:42:59;;;;;;;1.97;1.07;;;9.50;99.90;;;;;;4960721;28;20560;-48
2024/02/12 00:45:27;;;;;;;1.43;0.87;;;9.50;99.90;;;;;;4967055;28;20439;-48
2024/02/12 00:47:56;;;;;;;1.83;1.13;;;9.50;99.90;;;;;;4963197;28;20474;-49
2024/02/12 00:53:21;;;;;;;1.60;1.30;;;9.50;99.90;;;;;;4926488;28;20496;-49
2024/02/12 00:55:50;;;;;;;1.57;1.10;;;9.50;99.90;;;;;;4925864;29;20481;-46
2024/02/12 00:58:19;;;;;;;1.40;0.83;;;9.50;99.90;;;;;;4929035;28;20513;-51
2024/02/12 01:00:47;;;;;;;1.97;1.33;;;9.50;99.90;;;;;;4929010;29;20440;-47
2024/02/12 01:03:15;;;;;;;2.00;1.50;;;9.50;99.90;;;;;;4922803;28;20519;-47
2024/02/12 01:05:45;;;;;;;1.50;1.00;;;9.50;99.90;;;;;;4925106;29;20490;-47
2024/02/12 01:08:15;;;;;;;1.73;1.20;;;9.50;99.90;;;;;;4922804;28;20477;-47
2024/02/12 01:10:43;;;;;;;1.90;1.57;;;9.50;99.90;;;;;;4927622;29;20441;-47
2024/02/12 01:13:12;;;;;;;1.87;1.30;;;9.50;99.90;;;;;;4919106;28;20843;-45
2024/02/12 01:15:41;;;;;;;1.80;1.57;;;9.50;99.90;;;;;;4925692;29;20928;-47
2024/02/12 01:18:09;;;;;;;3.17;1.33;;;9.50;99.90;;;;;;4922719;28;20471;-47
2024/02/12 01:20:39;;;;;;;1.90;1.20;;;9.50;99.90;;;;;;4928607;29;20443;-50
2024/02/12 01:23:08;;;;;;;1.73;1.00;;;9.50;99.90;;;;;;4922985;29;20489;-47
2024/02/12 01:25:36;;;;;;;2.33;1.57;;;9.50;99.90;;;;;;4927299;29;20472;-48
2024/02/12 01:28:06;;;;;;;2.27;1.30;;;9.50;99.90;;;;;;4927157;28;21735;-47
2024/02/12 01:30:36;;;;;;;2.03;1.73;;;9.50;99.90;;;;;;4929265;29;20504;-48
2024/02/12 01:33:06;;;;;;;1.90;1.10;;;9.50;99.90;;;;;;4920674;29;20580;-48
2024/02/12 01:35:37;;;;;;;2.00;1.37;;;9.50;99.90;;;;;;4931423;29;20447;-47
2024/02/12 01:38:08;;;;;;;1.73;1.13;;;9.50;99.90;;;;;;4927955;28;21737;-48
2024/02/12 01:40:36;;;;;;;1.77;1.13;;;9.50;99.90;;;;;;4925846;29;20969;-46
2024/02/12 01:43:05;;;;;;;1.73;1.40;;;9.50;99.90;;;;;;4929932;28;21304;-46
2024/02/12 01:45:35;;;;;;;2.00;1.40;;;9.50;99.90;;;;;;4927347;29;20836;-47
2024/02/12 01:48:09;;;;;;;1.83;1.70;;;9.50;99.90;;;;;;4923519;29;20843;-46
2024/02/12 01:50:38;;;;;;;2.17;1.30;;;9.50;99.90;;;;;;4927274;29;20533;-46
2024/02/12 01:53:07;;;;;;;2.73;1.40;;;9.50;99.90;;;;;;4930035;28;21160;-46
2024/02/12 01:55:35;;;;;;;1.77;1.30;;;9.50;99.90;;;;;;4932164;29;20441;-47
2024/02/12 01:58:05;;;;;;;1.93;1.40;;;9.50;99.90;;;;;;4933777;29;20560;-46
2024/02/12 02:00:33;;;;;;;2.20;1.20;;;9.50;99.90;;;;;;4927289;29;20822;-46
2024/02/12 02:03:15;;;;;;;1.93;1.50;;;9.50;99.90;;;;;;4923278;29;20472;-46
2024/02/12 02:05:44;;;;;;;2.40;1.70;;;9.50;99.90;;;;;;4925379;29;20440;-45
2024/02/12 02:08:13;;;;;;;3.57;1.73;;;9.50;99.90;;;;;;4917332;29;20472;-46
2024/02/12 02:10:43;;;;;;;2.13;1.47;;;9.50;99.90;;;;;;4919944;29;20545;-46
2024/02/12 02:13:11;;;;;;;2.30;1.73;;;9.50;99.90;;;;;;4928411;28;20855;-46
2024/02/12 02:15:42;;;;;;;2.77;2.17;;;9.50;99.90;;;;;;4925160;29;20710;-47
2024/02/12 02:18:12;;;;;;;1.97;1.63;;;9.50;99.90;;;;;;4921771;28;20483;-46
2024/02/12 02:20:41;;;;;;;2.57;1.70;;;9.50;99.90;;;;;;4927698;29;20437;-46
2024/02/12 02:23:09;;;;;;;2.20;1.73;;;9.50;99.90;;;;;;4923924;28;20477;-46
2024/02/12 02:25:40;;;;;;;2.80;1.73;;;9.50;99.90;;;;;;4926769;29;20855;-46
2024/02/12 02:28:08;;;;;;;2.50;1.70;;;9.50;99.90;;;;;;4926802;28;20575;-46
2024/02/12 02:30:39;;;;;;;4.50;2.23;;;9.50;99.90;;;;;;4931427;29;20448;-46
2024/02/12 02:33:07;;;;;;;3.43;1.90;;;9.50;99.90;;;;;;4921241;28;21033;-47
2024/02/12 02:35:35;;;;;;;1.90;1.70;;;9.50;99.90;;;;;;4929567;29;20429;-47
2024/02/12 02:38:04;;;;;;;2.57;1.73;;;9.50;99.90;;;;;;4926241;28;20473;-46
2024/02/12 02:40:32;;;;;;;3.23;1.80;;;9.50;99.90;;;;;;4933029;29;20443;-46
2024/02/12 02:43:02;;;;;;;2.77;2.10;;;9.50;99.90;;;;;;4927405;28;20495;-46
2024/02/12 02:45:30;;;;;;;2.63;1.83;;;9.50;99.90;;;;;;4926166;29;20433;-47
2024/02/12 02:47:59;;;;;;;3.60;2.70;;;9.50;99.90;;;;;;4922859;28;20473;-46
2024/02/12 02:50:29;;;;;;;3.10;2.10;;;9.50;99.90;;;;;;4922299;29;20465;-46
2024/02/12 02:52:58;;;;;;;2.40;1.80;;;9.50;99.90;;;;;;4932950;28;20524;-47
2024/02/12 02:55:28;;;;;;;2.27;1.87;;;9.50;99.90;;;;;;4926159;29;20432;-47
2024/02/12 02:57:56;;;;;;;2.50;1.70;;;9.50;99.90;;;;;;4930157;28;20499;-47
2024/02/12 03:00:26;;;;;;;3.30;2.27;;;9.50;99.90;;;;;;4924592;29;20449;-46
2024/02/12 03:02:54;;;;;;;3.00;2.37;;;9.50;99.90;;;;;;4929419;28;20472;-45
2024/02/12 03:05:23;;;;;;;2.50;1.80;;;9.50;99.90;;;;;;4932590;29;20440;-47
2024/02/12 03:07:52;;;;;;;3.50;2.43;;;9.40;99.90;;;;;;4932515;28;20500;-46
2024/02/12 03:10:20;;;;;;;3.60;2.37;;;9.50;99.90;;;;;;4927383;29;20554;-46
2024/02/12 03:12:49;;;;;;;4.17;1.97;;;9.40;99.90;;;;;;4931800;28;20488;-46
2024/02/12 03:15:19;;;;;;;3.13;2.37;;;9.40;99.90;;;;;;4932290;29;20536;-46
2024/02/12 03:17:48;;;;;;;3.07;2.03;;;9.40;99.90;;;;;;4929387;28;20472;-46
2024/02/12 03:20:17;;;;;;;2.97;1.80;;;9.40;99.90;;;;;;4932827;29;20524;-46
2024/02/12 03:22:46;;;;;;;3.57;2.50;;;9.40;99.90;;;;;;4930973;28;20462;-44
2024/02/12 03:25:16;;;;;;;2.70;1.77;;;9.40;99.90;;;;;;5030816;23;20925;-45
2024/02/12 03:27:44;;;;;;;3.40;2.97;;;9.50;99.90;;;;;;4967923;28;20500;-46
2024/02/12 03:30:14;;;;;;;3.30;2.40;;;9.40;99.90;;;;;;4969343;28;20503;-47
2024/02/12 03:32:42;;;;;;;2.80;2.27;;;9.40;99.90;;;;;;4967744;28;20467;-46
2024/02/12 03:35:12;;;;;;;2.80;2.43;;;9.40;99.90;;;;;;4969365;28;20809;-46
2024/02/12 03:37:40;;;;;;;2.80;2.10;;;9.40;99.90;;;;;;4953657;28;20485;-46
2024/02/12 03:40:12;;;;;;;2.73;1.87;;;9.40;99.90;;;;;;4950147;28;20427;-46
2024/02/12 03:42:42;;;;;;;2.40;2.10;;;9.40;99.90;;;;;;4961978;28;20558;-47
2024/02/12 03:45:11;;;;;;;1.83;1.43;;;9.40;99.90;;;;;;4967462;28;20502;-47
2024/02/12 03:47:39;;;;;;;2.73;2.07;;;9.40;99.90;;;;;;4946604;28;20490;-46
2024/02/12 04:01:22;;;;;;;3.13;1.90;;;9.40;99.90;;;;;;4956114;28;20482;-47
2024/02/12 04:03:50;;;;;;;2.43;1.50;;;9.40;99.90;;;;;;4938918;28;20486;-45
2024/02/12 04:06:24;;;;;;;2.40;1.80;;;9.40;99.90;;;;;;4942365;28;20456;-46
2024/02/12 04:08:53;;;;;;;2.20;1.90;;;9.40;99.90;;;;;;4949327;28;20476;-46
2024/02/12 04:11:21;;;;;;;3.80;2.60;;;9.40;99.90;;;;;;4954739;28;20837;-46
2024/02/12 04:13:50;;;;;;;2.80;1.80;;;9.40;99.90;;;;;;4960198;28;20472;-46
2024/02/12 04:16:18;;;;;;;2.80;2.20;;;9.40;99.90;;;;;;4952766;28;21139;-46
2024/02/12 04:18:47;;;;;;;3.00;2.30;;;9.40;99.90;;;;;;4947491;28;20560;-46
2024/02/12 04:21:16;;;;;;;3.33;2.63;;;9.40;99.90;;;;;;4955280;28;20447;-46
2024/02/12 04:23:49;;;;;;;2.80;2.03;;;9.40;99.90;;;;;;4949434;28;20458;-46
2024/02/12 04:26:18;;;;;;;2.73;2.17;;;9.40;99.90;;;;;;4950356;28;20427;-45
2024/02/12 04:28:48;;;;;;;2.37;1.80;;;9.40;99.90;;;;;;4950586;28;20467;-47
2024/02/12 04:31:17;;;;;;;3.10;2.57;;;9.40;99.90;;;;;;4958569;28;20466;-47
2024/02/12 04:33:46;;;;;;;3.43;2.80;;;9.40;99.90;;;;;;4959915;28;20474;-48
2024/02/12 04:36:16;;;;;;;5.00;2.60;;;9.40;99.90;;;;;;4954312;28;20960;-47
2024/02/12 04:38:44;;;;;;;4.10;2.87;;;9.40;99.90;;;;;;4953800;28;20472;-47
2024/02/12 04:41:14;;;;;;;3.27;2.20;;;9.40;99.90;;;;;;4951895;28;20459;-48
2024/02/12 04:43:44;;;;;;;2.43;1.90;;;9.40;99.90;;;;;;4958938;28;20454;-47
2024/02/12 04:46:13;;;;;;;2.90;1.93;;;9.40;99.90;;;;;;4960863;28;20423;-46
2024/02/12 04:48:41;;;;;;;5.53;3.07;;;9.40;99.90;;;;;;4951381;28;20498;-47
2024/02/12 04:51:11;;;;;;;3.27;2.07;;;9.40;99.90;;;;;;4965896;28;20546;-51
2024/02/12 04:53:39;;;;;;;2.90;2.43;;;9.40;99.90;;;;;;4958115;28;20475;-48
2024/02/12 04:56:08;;;;;;;2.90;2.00;;;9.40;99.90;;;;;;4952050;28;20444;-48
2024/02/12 04:58:39;;;;;;;2.40;1.97;;;9.40;99.90;;;;;;4952702;28;20519;-47
2024/02/12 05:01:07;;;;;;;3.70;2.33;;;9.40;99.90;;;;;;4964201;28;20428;-47
2024/02/12 05:03:37;;;;;;;2.93;2.00;;;9.40;99.90;;;;;;4958984;28;20474;-48
2024/02/12 05:06:06;;;;;;;3.40;2.10;;;9.40;99.90;;;;;;4956785;28;20839;-49
2024/02/12 05:08:34;;;;;;;3.00;2.20;;;9.40;99.90;;;;;;4949085;28;20504;-48
2024/02/12 05:11:03;;;;;;;3.00;2.50;;;9.40;99.90;;;;;;4950082;28;20992;-47
2024/02/12 05:13:32;;;;;;;2.83;2.10;;;9.30;99.90;;;;;;4963824;28;20845;-49
2024/02/12 05:16:04;;;;;;;4.27;2.60;;;9.40;99.90;;;;;;4955874;28;20968;-47
2024/02/12 05:24:00;;;;;;;4.60;2.30;;;9.40;99.90;;;;;;4959307;28;20838;-48
2024/02/12 05:26:28;;;;;;;2.67;2.13;;;9.40;99.90;;;;;;4958076;28;20429;-48
2024/02/12 05:28:56;;;;;;;3.50;2.87;;;9.40;99.90;;;;;;4955429;28;20491;-48
2024/02/12 05:31:27;;;;;;;4.67;3.00;;;9.40;99.90;;;;;;4947434;28;20478;-50
2024/02/12 05:33:55;;;;;;;3.23;1.90;;;9.40;99.90;;;;;;4958469;28;20467;-47
2024/02/12 05:36:24;;;;;;;3.30;2.20;;;9.40;99.90;;;;;;4953440;28;20436;-48
2024/02/12 05:38:52;;;;;;;3.23;2.37;;;9.40;99.90;;;;;;4958784;28;20568;-48
2024/02/12 05:41:21;;;;;;;2.83;2.53;;;9.30;99.90;;;;;;4952142;28;20439;-47
2024/02/12 05:43:49;;;;;;;3.00;2.27;;;9.40;99.90;;;;;;4949707;28;20470;-49
2024/02/12 05:46:17;;;;;;;3.43;2.50;;;9.30;99.90;;;;;;4941467;28;20816;-47
2024/02/12 05:48:47;;;;;;;5.30;2.37;;;9.30;99.90;;;;;;4946930;28;20820;-51
2024/02/12 05:51:15;;;;;;;4.37;3.30;;;9.30;99.90;;;;;;4964779;28;20500;-48
2024/02/12 05:53:44;;;;;;;4.00;2.60;;;9.30;99.90;;;;;;4964914;28;20554;-49
2024/02/12 05:56:12;;;;;;;2.57;2.37;;;9.40;99.90;;;;;;4954779;28;20452;-51
2024/02/12 05:58:42;;;;;;;2.33;1.80;;;9.30;99.90;;;;;;4960796;28;20463;-48
2024/02/12 06:01:11;;;;;;;3.30;2.23;;;9.30;99.90;;;;;;4963591;28;20535;-47
2024/02/12 06:03:40;;;;;;;2.47;1.93;;;9.30;99.90;;;;;;4943375;28;20482;-48
2024/02/12 06:06:10;;;;;;;2.50;2.20;;;9.30;99.90;;;;;;4946214;28;20748;-48
2024/02/12 06:08:38;;;;;;;2.60;1.80;;;9.30;99.90;;;;;;4958064;28;20560;-48
2024/02/12 06:11:07;;;;;;;3.00;2.40;;;9.30;99.90;;;;;;4949635;28;20522;-47
2024/02/12 06:13:35;;;;;;;3.97;2.20;;;9.30;99.90;;;;;;4953299;28;20467;-47
2024/02/12 06:16:04;;;;;;;3.07;2.20;;;9.30;99.90;;;;;;4960808;28;21031;-48
2024/02/12 06:18:33;;;;;;;3.20;2.27;;;9.30;99.90;;;;;;4946185;28;20471;-48
2024/02/12 06:21:01;;;;;;;4.10;2.40;;;9.30;99.90;;;;;;4962053;28;20539;-47
2024/02/12 06:23:31;;;;;;;3.67;2.63;;;9.30;99.90;;;;;;4963237;28;20468;-48
2024/02/12 06:25:59;;;;;;;3.33;2.97;;;9.30;99.90;;;;;;4950556;28;20969;-47
2024/02/12 06:28:28;;;;;;;3.27;1.97;;;9.30;99.90;;;;;;4961654;28;20513;-47
2024/02/12 06:30:56;;;;;;;2.93;2.43;;;9.30;99.90;;;;;;4957935;28;20467;-47
2024/02/12 06:33:24;;;;;;;4.00;2.53;;;9.30;99.90;;;;;;4956170;28;20601;-47
2024/02/12 06:35:53;;;;;;;4.20;2.97;;;9.30;99.90;;;;;;4962521;28;20463;-51
2024/02/12 06:38:22;;;;;;;3.93;2.60;;;9.30;99.90;;;;;;4951950;28;20855;-49
2024/02/12 06:40:52;;;;;;;2.93;2.00;;;9.30;99.90;;;;;;4951408;28;20444;-47
2024/02/12 06:43:21;;;;;;;3.43;2.30;;;9.30;99.90;;;;;;4949923;28;20553;-47
2024/02/12 06:45:49;;;;;;;2.97;2.27;;;9.30;99.90;;;;;;4963094;28;20442;-46
2024/02/12 06:48:17;;;;;;;3.10;2.40;;;9.30;99.90;;;;;;4948191;28;20466;-48
2024/02/12 06:50:46;;;;;;;3.47;2.47;;;9.30;99.90;;;;;;4960809;28;20451;-46
2024/02/12 06:53:17;;;;;;;3.13;2.17;;;9.30;99.90;;;;;;4958050;28;20553;-48
2024/02/12 06:55:46;;;;;;;3.87;2.33;;;9.30;99.90;;;;;;4956486;28;20438;-48
2024/02/12 06:58:16;;;;;;;3.17;2.10;;;9.30;99.90;;;;;;4955815;28;20466;-48
2024/02/12 07:00:44;;;;;;;3.77;2.93;;;9.30;99.90;;;;;;4959339;28;20466;-47
2024/02/12 07:03:12;;;;;;;3.30;2.30;;;9.30;99.90;;;;;;4954938;28;21064;-48
2024/02/12 07:05:41;;;;;;;3.23;2.93;;;9.30;99.90;;;;;;4952393;28;20464;-47
2024/02/12 07:08:11;;;;;;;3.70;3.30;;;9.30;99.90;;;;;;4962601;28;20491;-47
2024/02/12 07:10:40;;;;;;;3.67;3.20;;;9.30;99.90;;;;;;4954484;28;20878;-46
2024/02/12 07:13:08;;;;;;;2.60;1.90;;;9.30;99.90;;;;;;4950985;28;20463;-45
2024/02/12 07:15:38;;;;;;;3.63;3.10;;;9.30;99.90;;;;;;4954900;28;20451;-46
2024/02/12 07:18:07;;;;;;;3.77;2.37;;;9.30;99.90;;;;;;4947727;28;20471;-47
2024/02/12 07:20:36;;;;;;;3.23;2.73;;;9.30;99.90;;;;;;4956156;28;20953;-46
2024/02/12 07:23:04;;;;;;;4.33;2.77;;;9.30;99.90;;;;;;4957581;28;20828;-45
2024/02/12 07:25:33;;;;;;;4.30;3.17;;;9.30;99.90;;;;;;4933952;28;20797;-45
2024/02/12 07:28:01;;;;;;;3.10;2.40;;;9.30;99.90;;;;;;4945337;28;20517;-49
2024/02/12 07:30:31;;;;;;;3.23;2.27;;;9.30;99.90;;;;;;4949018;28;20808;-47
2024/02/12 07:33:02;;;;;;;3.50;2.67;;;9.30;99.90;;;;;;4941290;28;20556;-47
2024/02/12 07:35:33;;;;;;;4.10;2.30;;;9.20;99.90;;;;;;4961896;28;20438;-49
2024/02/12 07:38:03;;;;;;;3.77;3.00;;;9.30;99.90;;;;;;4961558;28;20514;-47
2024/02/12 07:40:33;;;;;;;3.53;2.33;;;9.30;99.90;;;;;;4945880;28;20457;-46
2024/02/12 07:43:01;;;;;;;4.17;2.77;;;9.30;99.90;;;;;;4957987;28;20841;-46
2024/02/12 07:45:29;;;;;;;3.93;2.60;;;9.30;99.90;;;;;;4946761;28;20577;-45
2024/02/12 07:47:57;;;;;;;4.30;2.50;;;9.20;99.90;;;;;;4953357;28;20475;-46
2024/02/12 07:50:28;;;;;;;3.03;2.40;;;9.30;99.90;;;;;;4953176;28;20438;-46
2024/02/12 07:52:56;;;;;;;3.53;2.33;;;9.30;99.90;;;;;;4951884;28;20834;-50
2024/02/12 07:55:24;;;;;;;3.27;2.50;;;9.30;99.90;;;;;;4961183;28;20487;-48
2024/02/12 07:57:53;;;;;;;3.40;2.77;;;9.30;99.90;;;;;;4959539;28;20554;-46
2024/02/12 08:00:21;;;;;;;3.93;3.00;;;9.30;99.90;;;;;;4942002;28;20456;-48
2024/02/12 08:02:50;;;;;;;2.63;2.03;;;9.30;99.90;;;;;;4951186;28;20470;-45
2024/02/12 08:05:21;;;;;;;2.80;2.37;;;9.30;99.90;;;;;;4961028;28;20944;-47
2024/02/12 08:07:51;;;;;;;3.40;2.83;;;9.30;99.90;;;;;;4963663;28;20840;-46
2024/02/12 08:10:31;;;;;;;2.97;2.60;;;9.30;99.90;;;;;;4938586;28;20908;-49
2024/02/12 08:13:01;;;;;;;3.77;2.53;;;9.30;99.90;;;;;;4957060;28;20479;-48
2024/02/12 08:15:29;;;;;;;3.70;2.20;;;9.30;99.90;;;;;;4964885;28;20849;-47
2024/02/12 08:17:58;;;;;;;3.23;2.70;;;9.20;99.90;;;;;;4955091;28;20476;-48
2024/02/12 08:20:27;;;;;;;4.10;2.43;;;9.30;99.90;;;;;;4955486;28;20430;-47
2024/02/12 08:22:57;;;;;;;3.90;2.57;;;9.20;99.90;;;;;;4957832;28;20467;-48
2024/02/12 08:25:27;;;;;;;7.20;2.50;;;9.30;99.90;;;;;;4965175;28;20925;-49
2024/02/12 08:27:55;;;;;;;2.83;2.37;;;9.20;99.90;;;;;;4963965;28;21051;-50
2024/02/12 08:30:23;;;;;;;2.90;1.97;;;9.20;99.90;;;;;;4956072;28;20442;-48
2024/02/12 08:32:52;;;;;;;3.60;2.40;;;9.20;99.90;;;;;;4951892;28;20497;-49
2024/02/12 08:35:21;;;;;;;3.27;2.33;;;9.30;99.90;;;;;;4957906;28;20449;-46
2024/02/12 08:37:50;;;;;;;3.63;3.27;;;9.20;99.90;;;;;;4963103;28;20466;-47
2024/02/12 08:40:20;;;;;;;2.80;2.47;;;9.20;99.90;;;;;;4962728;28;20981;-46
2024/02/12 08:42:50;;;;;;;3.63;2.50;;;9.20;99.90;;;;;;4949666;28;20461;-46
2024/02/12 08:45:18;;;;;;;2.37;2.17;;;9.30;99.90;;;;;;4962642;28;20439;-46
2024/02/12 08:47:48;;;;;;;3.57;3.00;;;9.20;99.90;;;;;;4958865;28;20458;-46
2024/02/12 08:50:17;;;;;;;3.40;2.90;;;9.20;99.90;;;;;;4959277;28;20467;-45
2024/02/12 08:52:45;;;;;;;5.13;2.27;;;9.20;99.90;;;;;;4964283;28;20468;-45
2024/02/12 08:55:15;;;;;;;2.80;2.30;;;9.20;99.90;;;;;;4952812;28;20446;-47
2024/02/12 08:57:48;;;;;;;4.80;2.90;;;9.20;99.90;;;;;;4946383;28;20467;-46
2024/02/12 09:00:18;;;;;;;2.73;2.17;;;9.20;99.90;;;;;;4961978;28;20423;-47
2024/02/12 09:02:47;;;;;;;3.07;2.07;;;9.20;99.90;;;;;;4956799;28;20467;-46
2024/02/12 09:05:16;;;;;;;3.40;2.00;;;9.20;99.90;;;;;;4962487;28;20452;-48
2024/02/12 09:07:46;;;;;;;2.67;2.13;;;9.20;99.90;;;;;;4964136;28;20885;-47
2024/02/12 09:10:14;;;;;;;3.30;2.03;;;9.20;99.90;;;;;;4945228;28;21046;-46
2024/02/12 09:12:46;;;;;;;3.43;2.40;;;9.30;99.90;;;;;;4945777;28;20471;-47
2024/02/12 09:15:22;;;;;;;2.63;2.33;;;9.20;99.90;;;;;;4956313;28;20960;-48
2024/02/12 09:17:55;;;;;;;4.20;2.20;;;9.30;99.90;;;;;;4948501;28;20460;-48
2024/02/12 09:20:24;;;;;;;2.57;2.10;;;9.30;99.90;;;;;;4952185;28;20532;-49
2024/02/12 09:22:53;;;;;;;3.10;2.67;;;9.30;99.90;;;;;;4950222;28;20591;-45
2024/02/12 09:25:22;;;;;;;2.80;2.33;;;9.30;99.90;;;;;;4943475;28;20883;-46
2024/02/12 09:27:53;;;;;;;4.07;2.40;;;9.30;99.90;;;;;;4956561;28;20467;-45
2024/02/12 09:30:23;;;;;;;4.10;2.47;;;9.20;99.90;;;;;;4933599;28;20449;-46
2024/02/12 09:32:51;;;;;;;2.90;2.30;;;9.30;99.90;;;;;;4949911;28;20813;-46
2024/02/12 09:35:20;;;;;;;4.77;2.90;;;9.30;99.90;;;;;;4951891;28;20483;-44
2024/02/12 09:37:49;;;;;;;2.83;2.23;;;9.30;99.90;;;;;;4949908;28;20527;-45
2024/02/12 09:40:21;;;;;;;3.10;2.67;;;9.30;99.90;;;;;;4961038;28;20606;-46
2024/02/12 09:42:54;;;;;;;3.60;1.90;;;9.30;99.90;;;;;;4939314;28;20830;-48
2024/02/12 09:45:25;;;;;;;3.13;2.17;;;9.30;99.90;;;;;;4942208;28;20441;-48
2024/02/12 09:47:55;;;;;;;3.37;2.30;;;9.30;99.90;;;;;;4952754;28;20491;-47
2024/02/12 09:50:25;;;;;;;3.50;1.73;;;9.30;99.90;;;;;;4945813;28;20639;-47
2024/02/12 09:52:56;;;;;;;3.00;2.27;;;9.30;99.90;;;;;;4956423;28;20541;-48
2024/02/12 09:55:26;;;;;;;2.97;2.00;;;9.30;99.90;;;;;;4947033;28;20457;-47
2024/02/12 09:57:54;;;;;;;2.40;2.10;;;9.30;99.90;;;;;;4958385;28;20559;-47
2024/02/12 10:00:24;;;;;;;3.53;2.07;;;9.30;99.90;;;;;;4943107;28;20797;-48
2024/02/12 10:02:55;;;;;;;4.17;2.13;;;9.30;99.90;;;;;;4937827;28;21014;-46
2024/02/12 10:05:24;;;;;;;2.77;2.20;;;9.20;99.90;;;;;;4953737;28;20513;-46
2024/02/12 10:07:55;;;;;;;2.90;2.13;;;9.20;99.90;;;;;;4953530;28;20473;-48
2024/02/12 10:10:24;;;;;;;2.17;1.77;;;9.20;99.90;;;;;;4954849;28;20959;-45
2024/02/12 10:12:53;;;;;;;3.33;2.17;;;9.30;99.90;;;;;;4955147;28;20472;-50
2024/02/12 10:15:23;;;;;;;2.83;2.20;;;9.30;99.90;;;;;;4960350;28;20430;-48
2024/02/12 10:17:55;;;;;;;2.13;1.70;;;9.30;99.90;;;;;;4953663;28;20878;-49
2024/02/12 10:20:25;;;;;;;3.23;2.43;;;9.30;99.90;;;;;;4953958;28;20984;-48
2024/02/12 10:22:53;;;;;;;2.50;1.93;;;9.30;99.90;;;;;;4960648;28;20891;-48
2024/02/12 10:25:22;;;;;;;3.40;2.10;;;9.30;99.90;;;;;;4951670;28;20473;-45
2024/02/12 10:27:50;;;;;;;3.53;2.23;;;9.30;99.90;;;;;;4962011;28;20457;-47
2024/02/12 10:30:20;;;;;;;3.20;2.47;;;9.30;99.90;;;;;;4961919;28;20972;-46
2024/02/12 10:32:50;;;;;;;2.90;2.20;;;9.30;99.90;;;;;;4955469;28;20501;-46
2024/02/12 10:35:23;;;;;;;3.60;2.00;;;9.30;99.90;;;;;;4961784;28;20428;-48
2024/02/12 10:37:53;;;;;;;3.57;2.30;;;9.30;99.90;;;;;;4961541;28;20559;-46
2024/02/12 10:40:29;;;;;;;3.13;2.03;;;9.30;99.90;;;;;;4962032;28;20422;-46
2024/02/12 10:43:03;;;;;;;2.27;2.07;;;9.30;99.90;;;;;;4940122;28;20472;-44
2024/02/12 10:45:32;;;;;;;3.13;2.37;;;9.30;99.90;;;;;;4954714;28;20431;-47
2024/02/12 10:48:02;;;;;;;2.37;2.17;;;9.30;99.90;;;;;;4953893;28;20470;-49
2024/02/12 10:50:35;;;;;;;4.50;2.30;;;9.30;99.90;;;;;;4957210;28;20431;-46
2024/02/12 10:53:06;;;;;;;2.00;1.70;;;9.30;99.90;;;;;;4947169;28;20482;-46
2024/02/12 10:55:37;;;;;;;3.20;2.00;;;9.30;99.90;;;;;;4959851;28;20790;-44
2024/02/12 10:58:09;;;;;;;2.57;1.77;;;9.30;99.90;;;;;;4941215;28;20559;-46
2024/02/12 11:00:39;;;;;;;2.07;1.60;;;9.30;99.90;;;;;;4961464;28;20479;-47
2024/02/12 11:03:16;;;;;;;3.90;2.00;;;9.30;99.90;;;;;;4952944;28;20838;-47
2024/02/12 11:05:48;;;;;;;2.57;1.97;;;9.30;99.90;;;;;;4957482;28;20936;-48
2024/02/12 11:08:20;;;;;;;2.77;2.30;;;9.30;99.90;;;;;;4946492;28;20491;-45
2024/02/12 11:10:50;;;;;;;3.33;1.70;;;9.30;99.90;;;;;;4957091;28;20505;-46
2024/02/12 11:13:21;;;;;;;3.43;2.10;;;9.30;99.90;;;;;;4958500;28;20480;-48
2024/02/12 11:15:53;;;;;;;2.83;2.10;;;9.30;99.90;;;;;;4934269;28;20827;-47
2024/02/12 11:18:26;;;;;;;2.77;1.80;;;9.30;99.90;;;;;;4954348;28;20483;-48
2024/02/12 11:20:57;;;;;;;2.50;1.70;;;9.30;99.90;;;;;;4953922;28;20437;-45
2024/02/12 11:23:26;;;;;;;3.00;2.00;;;9.30;99.90;;;;;;4949720;28;20450;-46
2024/02/12 11:25:56;;;;;;;2.30;1.80;;;9.30;99.90;;;;;;4946177;28;20600;-46
2024/02/12 11:28:28;;;;;;;2.63;2.03;;;9.30;99.90;;;;;;4948623;28;20470;-51
2024/02/12 11:30:56;;;;;;;2.30;1.80;;;9.30;99.90;;;;;;4951453;28;20456;-48
2024/02/12 11:33:25;;;;;;;2.40;2.03;;;9.30;99.90;;;;;;4949292;28;20475;-47
2024/02/12 11:36:10;;;;;;;2.47;1.60;;;9.30;99.90;;;;;;4959048;28;20931;-47
2024/02/12 11:38:49;;;;;;;2.20;1.70;;;9.30;99.90;;;;;;4957721;28;20459;-47
2024/02/12 11:41:17;;;;;;;3.30;2.03;;;9.30;99.90;;;;;;4954929;28;21004;-46
2024/02/12 11:43:47;;;;;;;2.63;1.80;;;9.30;99.90;;;;;;4959225;28;20838;-49
2024/02/12 11:46:18;;;;;;;3.13;1.97;;;9.30;99.90;;;;;;4947136;28;20429;-46
2024/02/12 11:48:46;;;;;;;3.20;2.00;;;9.30;99.90;;;;;;4954453;28;20459;-48
2024/02/12 11:51:20;;;;;;;2.33;2.13;;;9.30;99.90;;;;;;4961177;28;20440;-50
2024/02/12 11:53:51;;;;;;;2.73;1.70;;;9.30;99.90;;;;;;4959828;28;20473;-50
2024/02/12 11:56:23;;;;;;;2.97;1.80;;;9.30;99.90;;;;;;4953890;28;20494;-47
2024/02/12 11:58:54;;;;;;;4.83;2.17;;;9.30;99.90;;;;;;4950836;28;20468;-45
2024/02/12 12:01:24;;;;;;;2.60;2.07;;;9.30;99.90;;;;;;4954292;28;20500;-47
2024/02/12 12:03:53;;;;;;;2.17;1.77;;;9.30;99.90;;;;;;4940850;28;20835;-47
2024/02/12 12:06:23;;;;;;;2.37;1.70;;;9.30;99.90;;;;;;4948026;28;20515;-46
2024/02/12 12:08:52;;;;;;;2.30;1.80;;;9.30;99.90;;;;;;4949032;28;20960;-47
2024/02/12 12:11:22;;;;;;;3.00;1.83;;;9.30;99.90;;;;;;4953912;28;20433;-46
2024/02/12 12:13:58;;;;;;;3.00;2.03;;;9.30;99.90;;;;;;4941857;28;20861;-46
2024/02/12 12:16:28;;;;;;;1.77;1.40;;;9.30;99.90;;;;;;4935657;28;20747;-46
2024/02/12 12:19:01;;;;;;;2.70;1.53;;;9.30;99.90;;;;;;4946179;28;20456;-46
2024/02/12 12:21:32;;;;;;;2.30;2.00;;;9.30;99.90;;;;;;4942591;28;20462;-50
2024/02/12 12:24:00;;;;;;;3.00;1.90;;;9.30;99.90;;;;;;4956362;28;20841;-46
2024/02/12 12:26:29;;;;;;;2.90;1.90;;;9.30;99.90;;;;;;4950613;28;20450;-45
2024/02/12 12:28:57;;;;;;;2.10;1.60;;;9.30;99.90;;;;;;4959525;28;20818;-46
2024/02/12 12:31:29;;;;;;;2.30;2.00;;;9.30;99.90;;;;;;4949363;28;20494;-46
2024/02/12 12:33:57;;;;;;;2.67;1.70;;;9.30;99.90;;;;;;4954281;28;21083;-46
2024/02/12 12:36:25;;;;;;;2.93;1.83;;;9.30;99.90;;;;;;4948234;28;20427;-46
2024/02/12 12:38:58;;;;;;;2.10;1.60;;;9.30;99.90;;;;;;4955169;28;20521;-47
2024/02/12 12:41:27;;;;;;;2.07;1.63;;;9.30;99.90;;;;;;4948969;28;20530;-47
2024/02/12 12:43:55;;;;;;;3.50;2.00;;;9.30;99.90;;;;;;4958903;28;20470;-48
2024/02/12 12:46:24;;;;;;;2.20;1.80;;;9.30;99.90;;;;;;4960235;28;20448;-44
2024/02/12 12:48:53;;;;;;;2.40;1.90;;;9.30;99.90;;;;;;4954577;28;20555;-44
2024/02/12 12:51:21;;;;;;;1.77;1.40;;;9.30;99.90;;;;;;4960165;28;20442;-47
2024/02/12 12:53:49;;;;;;;3.50;2.17;;;9.30;99.90;;;;;;4944271;28;20477;-47
2024/02/12 12:56:20;;;;;;;2.90;1.93;;;9.30;99.90;;;;;;4949181;28;20454;-47
2024/02/12 12:58:49;;;;;;;2.90;1.57;;;9.30;99.90;;;;;;4952717;28;20569;-50
2024/02/12 13:01:17;;;;;;;2.13;1.57;;;9.30;99.90;;;;;;4952809;28;20463;-50
2024/02/12 13:06:27;;;;;;;1.77;1.53;;;9.30;99.90;;;;;;4901071;29;20823;-42
2024/02/12 13:08:56;;;;;;;2.60;1.70;;;9.30;99.90;;;;;;4906066;28;20485;-51
2024/02/12 13:11:27;;;;;;;2.10;1.50;;;9.30;99.90;;;;;;4909334;29;20452;-47
2024/02/12 13:13:55;;;;;;;2.70;2.10;;;9.30;99.90;;;;;;4923367;29;20850;-47
2024/02/12 13:16:24;;;;;;;2.90;1.70;;;9.30;99.90;;;;;;4887762;29;20964;-46
2024/02/12 13:18:56;;;;;;;3.63;1.53;;;9.30;99.90;;;;;;4889058;28;20553;-47
2024/02/12 13:21:25;;;;;;;3.90;2.20;;;9.30;99.90;;;;;;4902101;29;20457;-45
2024/02/12 13:23:54;;;;;;;3.20;1.87;;;9.30;99.90;;;;;;4887481;28;21048;-48
2024/02/12 13:26:24;;;;;;;2.20;1.70;;;9.30;99.90;;;;;;4882007;29;20455;-47
2024/02/12 13:28:54;;;;;;;3.83;1.97;;;9.30;99.90;;;;;;4918399;28;20510;-47
2024/02/12 13:31:27;;;;;;;1.83;1.43;;;9.30;99.90;;;;;;4891219;29;20884;-46